sensor_id;sensor_type;location;lat;lon;timestamp;P1;durP1;ratioP1;P2;durP2;ratioP2
40471;SDS011;26174;42.908;23.800;2022-09-17T00:01:08;4.72;;;2.05;;
40471;SDS011;26174;42.908;23.800;2022-09-17T00:03:57;8.85;;;2.13;;
40471;SDS011;26174;42.908;23.800;2022-09-17T00:06:39;6.90;;;2.30;;
40471;SDS011;26174;42.908;23.800;2022-09-17T00:09:05;7.82;;;1.95;;
40471;SDS011;26174;42.908;23.800;2022-09-17T00:11:32;8.57;;;2.55;;
40471;SDS011;26174;42.908;23.800;2022-09-17T00:14:00;6.22;;;2.25;;
40471;SDS011;26174;42.908;23.800;2022-09-17T00:16:28;7.00;;;2.10;;
40471;SDS011;26174;42.908;23.800;2022-09-17T00:18:55;7.05;;;2.65;;
40471;SDS011;26174;42.908;23.800;2022-09-17T00:21:21;6.70;;;2.40;;
40471;SDS011;26174;42.908;23.800;2022-09-17T00:23:48;7.50;;;2.72;;
40471;SDS011;26174;42.908;23.800;2022-09-17T00:26:18;11.15;;;2.00;;
40471;SDS011;26174;42.908;23.800;2022-09-17T00:28:43;8.95;;;2.50;;
40471;SDS011;26174;42.908;23.800;2022-09-17T00:31:12;7.68;;;2.50;;
40471;SDS011;26174;42.908;23.800;2022-09-17T00:33:38;17.63;;;2.60;;
40471;SDS011;26174;42.908;23.800;2022-09-17T00:36:04;11.90;;;2.33;;
40471;SDS011;26174;42.908;23.800;2022-09-17T00:38:30;3.35;;;1.83;;
40471;SDS011;26174;42.908;23.800;2022-09-17T00:40:56;4.90;;;1.98;;
40471;SDS011;26174;42.908;23.800;2022-09-17T00:43:35;4.93;;;2.47;;
40471;SDS011;26174;42.908;23.800;2022-09-17T00:48:49;12.50;;;2.35;;
40471;SDS011;26174;42.908;23.800;2022-09-17T00:51:17;10.63;;;2.30;;
40471;SDS011;26174;42.908;23.800;2022-09-17T00:53:45;13.27;;;2.53;;
40471;SDS011;26174;42.908;23.800;2022-09-17T00:56:19;5.78;;;2.30;;
40471;SDS011;26174;42.908;23.800;2022-09-17T00:58:53;7.57;;;2.87;;
40471;SDS011;26174;42.908;23.800;2022-09-17T01:01:19;5.47;;;2.47;;
40471;SDS011;26174;42.908;23.800;2022-09-17T01:03:44;5.68;;;2.42;;
40471;SDS011;26174;42.908;23.800;2022-09-17T01:22:39;4.90;;;2.25;;
40471;SDS011;26174;42.908;23.800;2022-09-17T01:25:21;9.60;;;2.20;;
40471;SDS011;26174;42.908;23.800;2022-09-17T01:33:11;6.37;;;2.30;;
40471;SDS011;26174;42.908;23.800;2022-09-17T01:39:05;9.13;;;2.38;;
40471;SDS011;26174;42.908;23.800;2022-09-17T01:41:42;6.63;;;2.47;;
40471;SDS011;26174;42.908;23.800;2022-09-17T01:49:59;5.45;;;2.35;;
40471;SDS011;26174;42.908;23.800;2022-09-17T01:52:34;6.63;;;2.65;;
40471;SDS011;26174;42.908;23.800;2022-09-17T01:55:06;8.05;;;2.72;;
40471;SDS011;26174;42.908;23.800;2022-09-17T01:57:39;8.23;;;2.40;;
40471;SDS011;26174;42.908;23.800;2022-09-17T02:00:10;6.20;;;2.33;;
40471;SDS011;26174;42.908;23.800;2022-09-17T02:02:51;4.47;;;2.00;;
40471;SDS011;26174;42.908;23.800;2022-09-17T02:05:26;5.03;;;2.17;;
40471;SDS011;26174;42.908;23.800;2022-09-17T02:08:08;11.15;;;4.00;;
40471;SDS011;26174;42.908;23.800;2022-09-17T02:10:37;8.35;;;2.80;;
40471;SDS011;26174;42.908;23.800;2022-09-17T02:13:12;4.63;;;2.65;;
40471;SDS011;26174;42.908;23.800;2022-09-17T02:15:50;9.60;;;2.63;;
40471;SDS011;26174;42.908;23.800;2022-09-17T02:21:00;5.55;;;2.30;;
40471;SDS011;26174;42.908;23.800;2022-09-17T02:23:33;8.43;;;2.80;;
40471;SDS011;26174;42.908;23.800;2022-09-17T02:26:11;8.10;;;2.90;;
40471;SDS011;26174;42.908;23.800;2022-09-17T02:28:41;12.63;;;2.58;;
40471;SDS011;26174;42.908;23.800;2022-09-17T02:31:10;6.53;;;2.03;;
40471;SDS011;26174;42.908;23.800;2022-09-17T02:33:36;7.72;;;2.40;;
40471;SDS011;26174;42.908;23.800;2022-09-17T02:36:02;7.68;;;2.38;;
40471;SDS011;26174;42.908;23.800;2022-09-17T02:38:29;12.40;;;2.95;;
40471;SDS011;26174;42.908;23.800;2022-09-17T02:41:14;8.43;;;2.50;;
40471;SDS011;26174;42.908;23.800;2022-09-17T02:43:50;6.22;;;2.47;;
40471;SDS011;26174;42.908;23.800;2022-09-17T02:51:53;7.25;;;2.47;;
40471;SDS011;26174;42.908;23.800;2022-09-17T02:54:56;6.28;;;2.40;;
40471;SDS011;26174;42.908;23.800;2022-09-17T02:57:29;7.38;;;2.50;;
40471;SDS011;26174;42.908;23.800;2022-09-17T03:04:56;6.47;;;2.58;;
40471;SDS011;26174;42.908;23.800;2022-09-17T03:07:22;8.73;;;2.10;;
40471;SDS011;26174;42.908;23.800;2022-09-17T03:09:48;8.45;;;2.17;;
40471;SDS011;26174;42.908;23.800;2022-09-17T03:12:13;10.60;;;2.65;;
40471;SDS011;26174;42.908;23.800;2022-09-17T03:14:39;6.10;;;2.40;;
40471;SDS011;26174;42.908;23.800;2022-09-17T03:17:05;4.63;;;2.90;;
40471;SDS011;26174;42.908;23.800;2022-09-17T03:19:30;6.97;;;2.83;;
40471;SDS011;26174;42.908;23.800;2022-09-17T03:21:56;8.70;;;3.25;;
40471;SDS011;26174;42.908;23.800;2022-09-17T03:24:22;12.80;;;3.40;;
40471;SDS011;26174;42.908;23.800;2022-09-17T03:26:47;12.23;;;3.22;;
40471;SDS011;26174;42.908;23.800;2022-09-17T03:29:13;8.30;;;3.42;;
40471;SDS011;26174;42.908;23.800;2022-09-17T03:31:39;6.10;;;3.05;;
40471;SDS011;26174;42.908;23.800;2022-09-17T03:34:05;7.68;;;3.40;;
40471;SDS011;26174;42.908;23.800;2022-09-17T03:36:31;8.80;;;3.28;;
40471;SDS011;26174;42.908;23.800;2022-09-17T03:38:57;7.88;;;3.40;;
40471;SDS011;26174;42.908;23.800;2022-09-17T03:41:23;10.88;;;3.67;;
40471;SDS011;26174;42.908;23.800;2022-09-17T03:43:49;8.30;;;3.28;;
40471;SDS011;26174;42.908;23.800;2022-09-17T03:46:15;6.80;;;2.90;;
40471;SDS011;26174;42.908;23.800;2022-09-17T03:48:42;8.48;;;2.90;;
40471;SDS011;26174;42.908;23.800;2022-09-17T03:51:08;11.75;;;3.28;;
40471;SDS011;26174;42.908;23.800;2022-09-17T03:53:33;16.90;;;3.35;;
40471;SDS011;26174;42.908;23.800;2022-09-17T03:55:59;7.32;;;2.97;;
40471;SDS011;26174;42.908;23.800;2022-09-17T03:58:27;6.30;;;3.08;;
40471;SDS011;26174;42.908;23.800;2022-09-17T04:00:53;9.02;;;3.20;;
40471;SDS011;26174;42.908;23.800;2022-09-17T04:03:21;12.45;;;2.63;;
40471;SDS011;26174;42.908;23.800;2022-09-17T04:05:48;11.27;;;2.47;;
40471;SDS011;26174;42.908;23.800;2022-09-17T04:08:13;7.30;;;1.70;;
40471;SDS011;26174;42.908;23.800;2022-09-17T04:10:39;5.57;;;2.05;;
40471;SDS011;26174;42.908;23.800;2022-09-17T04:13:04;6.65;;;1.95;;
40471;SDS011;26174;42.908;23.800;2022-09-17T04:15:30;8.48;;;1.65;;
40471;SDS011;26174;42.908;23.800;2022-09-17T04:17:56;7.75;;;2.33;;
40471;SDS011;26174;42.908;23.800;2022-09-17T04:20:25;9.52;;;2.03;;
40471;SDS011;26174;42.908;23.800;2022-09-17T04:22:51;5.90;;;1.80;;
40471;SDS011;26174;42.908;23.800;2022-09-17T04:25:17;7.45;;;1.80;;
40471;SDS011;26174;42.908;23.800;2022-09-17T04:27:43;4.63;;;2.05;;
40471;SDS011;26174;42.908;23.800;2022-09-17T04:30:10;8.90;;;1.63;;
40471;SDS011;26174;42.908;23.800;2022-09-17T04:32:36;8.43;;;2.13;;
40471;SDS011;26174;42.908;23.800;2022-09-17T04:35:02;8.57;;;1.38;;
40471;SDS011;26174;42.908;23.800;2022-09-17T04:37:28;10.32;;;1.52;;
40471;SDS011;26174;42.908;23.800;2022-09-17T04:39:54;6.80;;;1.88;;
40471;SDS011;26174;42.908;23.800;2022-09-17T04:42:19;13.10;;;2.00;;
40471;SDS011;26174;42.908;23.800;2022-09-17T04:44:45;5.53;;;1.65;;
40471;SDS011;26174;42.908;23.800;2022-09-17T04:47:10;9.73;;;1.60;;
40471;SDS011;26174;42.908;23.800;2022-09-17T04:49:36;6.75;;;1.65;;
40471;SDS011;26174;42.908;23.800;2022-09-17T04:52:01;6.53;;;1.95;;
40471;SDS011;26174;42.908;23.800;2022-09-17T04:54:27;9.80;;;1.80;;
40471;SDS011;26174;42.908;23.800;2022-09-17T04:56:52;9.38;;;2.10;;
40471;SDS011;26174;42.908;23.800;2022-09-17T04:59:18;9.02;;;2.03;;
40471;SDS011;26174;42.908;23.800;2022-09-17T05:01:44;5.75;;;1.90;;
40471;SDS011;26174;42.908;23.800;2022-09-17T05:04:09;5.47;;;2.42;;
40471;SDS011;26174;42.908;23.800;2022-09-17T05:06:35;4.00;;;1.70;;
40471;SDS011;26174;42.908;23.800;2022-09-17T05:09:01;9.07;;;2.30;;
40471;SDS011;26174;42.908;23.800;2022-09-17T05:11:29;8.43;;;1.95;;
40471;SDS011;26174;42.908;23.800;2022-09-17T05:13:55;8.02;;;2.30;;
40471;SDS011;26174;42.908;23.800;2022-09-17T05:16:20;9.07;;;2.40;;
40471;SDS011;26174;42.908;23.800;2022-09-17T05:18:46;10.65;;;4.10;;
40471;SDS011;26174;42.908;23.800;2022-09-17T05:21:13;5.93;;;1.80;;
40471;SDS011;26174;42.908;23.800;2022-09-17T05:23:39;3.75;;;1.30;;
40471;SDS011;26174;42.908;23.800;2022-09-17T05:26:04;6.75;;;1.75;;
40471;SDS011;26174;42.908;23.800;2022-09-17T05:28:30;4.15;;;1.58;;
40471;SDS011;26174;42.908;23.800;2022-09-17T05:30:58;12.82;;;1.80;;
40471;SDS011;26174;42.908;23.800;2022-09-17T05:33:24;2.78;;;1.05;;
40471;SDS011;26174;42.908;23.800;2022-09-17T05:35:49;3.75;;;1.40;;
40471;SDS011;26174;42.908;23.800;2022-09-17T05:38:15;3.75;;;1.15;;
40471;SDS011;26174;42.908;23.800;2022-09-17T05:40:43;1.65;;;0.60;;
40471;SDS011;26174;42.908;23.800;2022-09-17T05:43:09;3.45;;;1.00;;
40471;SDS011;26174;42.908;23.800;2022-09-17T05:45:35;2.45;;;1.10;;
40471;SDS011;26174;42.908;23.800;2022-09-17T05:48:02;5.07;;;1.35;;
40471;SDS011;26174;42.908;23.800;2022-09-17T05:50:29;2.92;;;1.25;;
40471;SDS011;26174;42.908;23.800;2022-09-17T05:52:55;7.68;;;2.75;;
40471;SDS011;26174;42.908;23.800;2022-09-17T05:55:21;6.20;;;1.80;;
40471;SDS011;26174;42.908;23.800;2022-09-17T05:57:48;4.47;;;1.67;;
40471;SDS011;26174;42.908;23.800;2022-09-17T06:00:14;4.45;;;1.50;;
40471;SDS011;26174;42.908;23.800;2022-09-17T06:02:40;4.03;;;1.20;;
40471;SDS011;26174;42.908;23.800;2022-09-17T06:05:06;5.70;;;1.33;;
40471;SDS011;26174;42.908;23.800;2022-09-17T06:07:35;3.05;;;1.33;;
40471;SDS011;26174;42.908;23.800;2022-09-17T06:10:02;3.00;;;1.20;;
40471;SDS011;26174;42.908;23.800;2022-09-17T06:12:29;3.67;;;1.23;;
40471;SDS011;26174;42.908;23.800;2022-09-17T06:14:55;6.28;;;1.35;;
40471;SDS011;26174;42.908;23.800;2022-09-17T06:17:21;2.28;;;0.80;;
40471;SDS011;26174;42.908;23.800;2022-09-17T06:19:46;5.22;;;1.08;;
40471;SDS011;26174;42.908;23.800;2022-09-17T06:22:12;5.63;;;1.30;;
40471;SDS011;26174;42.908;23.800;2022-09-17T06:24:37;2.67;;;1.50;;
40471;SDS011;26174;42.908;23.800;2022-09-17T06:27:03;2.97;;;1.40;;
40471;SDS011;26174;42.908;23.800;2022-09-17T06:29:29;3.72;;;1.50;;
40471;SDS011;26174;42.908;23.800;2022-09-17T06:31:54;3.05;;;1.88;;
40471;SDS011;26174;42.908;23.800;2022-09-17T06:34:20;8.20;;;1.60;;
40471;SDS011;26174;42.908;23.800;2022-09-17T06:36:47;4.50;;;1.70;;
40471;SDS011;26174;42.908;23.800;2022-09-17T06:39:13;4.88;;;1.77;;
40471;SDS011;26174;42.908;23.800;2022-09-17T06:41:41;4.15;;;1.27;;
40471;SDS011;26174;42.908;23.800;2022-09-17T06:44:07;6.38;;;3.08;;
40471;SDS011;26174;42.908;23.800;2022-09-17T06:46:33;8.27;;;1.83;;
40471;SDS011;26174;42.908;23.800;2022-09-17T06:48:58;5.72;;;1.55;;
40471;SDS011;26174;42.908;23.800;2022-09-17T06:51:24;3.90;;;1.70;;
40471;SDS011;26174;42.908;23.800;2022-09-17T06:53:49;0.73;;;0.60;;
40471;SDS011;26174;42.908;23.800;2022-09-17T06:56:15;4.97;;;1.20;;
40471;SDS011;26174;42.908;23.800;2022-09-17T06:58:41;2.75;;;1.20;;
40471;SDS011;26174;42.908;23.800;2022-09-17T07:01:08;2.42;;;0.90;;
40471;SDS011;26174;42.908;23.800;2022-09-17T07:03:34;3.90;;;0.90;;
40471;SDS011;26174;42.908;23.800;2022-09-17T07:06:00;2.53;;;1.23;;
40471;SDS011;26174;42.908;23.800;2022-09-17T07:08:26;2.88;;;0.90;;
40471;SDS011;26174;42.908;23.800;2022-09-17T07:10:55;2.95;;;0.70;;
40471;SDS011;26174;42.908;23.800;2022-09-17T07:13:21;3.80;;;1.33;;
40471;SDS011;26174;42.908;23.800;2022-09-17T07:15:54;14.30;;;4.60;;
40471;SDS011;26174;42.908;23.800;2022-09-17T07:18:20;7.05;;;2.90;;
40471;SDS011;26174;42.908;23.800;2022-09-17T07:23:21;5.63;;;2.33;;
40471;SDS011;26174;42.908;23.800;2022-09-17T07:25:51;8.48;;;2.67;;
40471;SDS011;26174;42.908;23.800;2022-09-17T07:28:17;7.50;;;2.83;;
40471;SDS011;26174;42.908;23.800;2022-09-17T07:30:43;16.98;;;5.32;;
40471;SDS011;26174;42.908;23.800;2022-09-17T07:33:09;12.88;;;4.57;;
40471;SDS011;26174;42.908;23.800;2022-09-17T07:35:34;6.88;;;2.97;;
40471;SDS011;26174;42.908;23.800;2022-09-17T07:38:00;5.13;;;2.22;;
40471;SDS011;26174;42.908;23.800;2022-09-17T07:40:25;4.32;;;1.70;;
40471;SDS011;26174;42.908;23.800;2022-09-17T07:42:57;3.05;;;1.30;;
40471;SDS011;26174;42.908;23.800;2022-09-17T07:45:23;5.25;;;1.15;;
40471;SDS011;26174;42.908;23.800;2022-09-17T07:47:49;1.88;;;1.10;;
40471;SDS011;26174;42.908;23.800;2022-09-17T07:50:15;4.85;;;1.42;;
40471;SDS011;26174;42.908;23.800;2022-09-17T07:52:47;3.78;;;1.00;;
40471;SDS011;26174;42.908;23.800;2022-09-17T07:55:13;10.85;;;1.67;;
40471;SDS011;26174;42.908;23.800;2022-09-17T07:57:39;4.80;;;1.50;;
40471;SDS011;26174;42.908;23.800;2022-09-17T08:00:05;1.95;;;1.00;;
40471;SDS011;26174;42.908;23.800;2022-09-17T08:02:31;4.03;;;1.20;;
40471;SDS011;26174;42.908;23.800;2022-09-17T08:04:57;3.88;;;1.20;;
40471;SDS011;26174;42.908;23.800;2022-09-17T08:07:22;0.93;;;0.70;;
40471;SDS011;26174;42.908;23.800;2022-09-17T08:09:48;4.38;;;1.50;;
40471;SDS011;26174;42.908;23.800;2022-09-17T08:12:14;1.80;;;0.70;;
40471;SDS011;26174;42.908;23.800;2022-09-17T08:14:39;1.77;;;0.88;;
40471;SDS011;26174;42.908;23.800;2022-09-17T08:17:06;2.22;;;1.08;;
40471;SDS011;26174;42.908;23.800;2022-09-17T08:19:32;2.47;;;1.42;;
40471;SDS011;26174;42.908;23.800;2022-09-17T08:21:58;2.38;;;1.23;;
40471;SDS011;26174;42.908;23.800;2022-09-17T08:24:23;2.08;;;0.60;;
40471;SDS011;26174;42.908;23.800;2022-09-17T08:26:49;6.57;;;1.73;;
40471;SDS011;26174;42.908;23.800;2022-09-17T08:29:14;0.95;;;0.75;;
40471;SDS011;26174;42.908;23.800;2022-09-17T08:31:40;3.60;;;1.10;;
40471;SDS011;26174;42.908;23.800;2022-09-17T08:37:37;2.67;;;1.00;;
40471;SDS011;26174;42.908;23.800;2022-09-17T08:40:02;1.92;;;1.45;;
40471;SDS011;26174;42.908;23.800;2022-09-17T08:42:50;3.50;;;1.30;;
40471;SDS011;26174;42.908;23.800;2022-09-17T08:45:19;6.93;;;3.50;;
40471;SDS011;26174;42.908;23.800;2022-09-17T08:47:45;3.38;;;1.30;;
40471;SDS011;26174;42.908;23.800;2022-09-17T08:50:15;8.38;;;3.80;;
40471;SDS011;26174;42.908;23.800;2022-09-17T08:52:54;4.97;;;1.40;;
40471;SDS011;26174;42.908;23.800;2022-09-17T09:06:16;4.22;;;1.38;;
40471;SDS011;26174;42.908;23.800;2022-09-17T09:08:43;10.82;;;2.35;;
40471;SDS011;26174;42.908;23.800;2022-09-17T09:11:12;3.55;;;1.83;;
40471;SDS011;26174;42.908;23.800;2022-09-17T09:13:45;6.53;;;1.23;;
40471;SDS011;26174;42.908;23.800;2022-09-17T09:16:20;5.95;;;1.33;;
40471;SDS011;26174;42.908;23.800;2022-09-17T09:24:58;1.83;;;1.10;;
40471;SDS011;26174;42.908;23.800;2022-09-17T09:30:53;5.00;;;1.85;;
40471;SDS011;26174;42.908;23.800;2022-09-17T09:33:25;3.45;;;1.52;;
40471;SDS011;26174;42.908;23.800;2022-09-17T09:35:53;3.38;;;1.60;;
40471;SDS011;26174;42.908;23.800;2022-09-17T09:38:30;5.97;;;1.70;;
40471;SDS011;26174;42.908;23.800;2022-09-17T09:57:16;5.57;;;1.85;;
40471;SDS011;26174;42.908;23.800;2022-09-17T09:59:45;6.68;;;1.88;;
40471;SDS011;26174;42.908;23.800;2022-09-17T10:02:11;3.53;;;2.08;;
40471;SDS011;26174;42.908;23.800;2022-09-17T10:04:37;11.50;;;6.53;;
40471;SDS011;26174;42.908;23.800;2022-09-17T10:07:03;8.20;;;2.85;;
40471;SDS011;26174;42.908;23.800;2022-09-17T10:09:30;7.50;;;2.28;;
40471;SDS011;26174;42.908;23.800;2022-09-17T10:14:33;6.40;;;2.08;;
40471;SDS011;26174;42.908;23.800;2022-09-17T10:17:10;6.43;;;2.00;;
40471;SDS011;26174;42.908;23.800;2022-09-17T10:19:39;3.53;;;1.60;;
40471;SDS011;26174;42.908;23.800;2022-09-17T10:24:56;5.47;;;1.67;;
40471;SDS011;26174;42.908;23.800;2022-09-17T10:27:23;4.88;;;1.80;;
40471;SDS011;26174;42.908;23.800;2022-09-17T10:29:50;7.13;;;2.10;;
40471;SDS011;26174;42.908;23.800;2022-09-17T10:32:21;3.07;;;1.63;;
40471;SDS011;26174;42.908;23.800;2022-09-17T10:35:04;4.40;;;2.30;;
40471;SDS011;26174;42.908;23.800;2022-09-17T10:42:47;3.73;;;2.20;;
40471;SDS011;26174;42.908;23.800;2022-09-17T10:45:25;9.88;;;2.55;;
40471;SDS011;26174;42.908;23.800;2022-09-17T10:47:58;4.18;;;1.73;;
40471;SDS011;26174;42.908;23.800;2022-09-17T10:50:35;7.70;;;2.60;;
40471;SDS011;26174;42.908;23.800;2022-09-17T10:53:04;6.07;;;2.28;;
40471;SDS011;26174;42.908;23.800;2022-09-17T10:55:37;5.55;;;2.63;;
40471;SDS011;26174;42.908;23.800;2022-09-17T11:06:22;5.30;;;2.10;;
40471;SDS011;26174;42.908;23.800;2022-09-17T11:12:01;6.85;;;1.88;;
40471;SDS011;26174;42.908;23.800;2022-09-17T11:14:48;5.25;;;1.88;;
40471;SDS011;26174;42.908;23.800;2022-09-17T11:17:34;3.17;;;1.38;;
40471;SDS011;26174;42.908;23.800;2022-09-17T11:20:44;2.45;;;1.60;;
40471;SDS011;26174;42.908;23.800;2022-09-17T11:34:34;2.80;;;1.30;;
40471;SDS011;26174;42.908;23.800;2022-09-17T11:39:56;3.25;;;1.30;;
40471;SDS011;26174;42.908;23.800;2022-09-17T11:42:42;4.85;;;1.65;;
40471;SDS011;26174;42.908;23.800;2022-09-17T11:47:48;3.80;;;1.45;;
40471;SDS011;26174;42.908;23.800;2022-09-17T11:50:23;2.17;;;1.50;;
40471;SDS011;26174;42.908;23.800;2022-09-17T11:55:34;5.20;;;1.52;;
40471;SDS011;26174;42.908;23.800;2022-09-17T11:58:14;3.85;;;1.60;;
40471;SDS011;26174;42.908;23.800;2022-09-17T12:00:48;6.18;;;3.83;;
40471;SDS011;26174;42.908;23.800;2022-09-17T12:03:38;10.15;;;5.47;;
40471;SDS011;26174;42.908;23.800;2022-09-17T12:06:08;4.57;;;1.52;;
40471;SDS011;26174;42.908;23.800;2022-09-17T12:09:38;4.47;;;1.40;;
40471;SDS011;26174;42.908;23.800;2022-09-17T13:24:24;3.85;;;1.77;;
40471;SDS011;26174;42.908;23.800;2022-09-17T13:26:52;5.00;;;1.70;;
40471;SDS011;26174;42.908;23.800;2022-09-17T13:40:03;3.75;;;2.50;;
40471;SDS011;26174;42.908;23.800;2022-09-17T13:42:41;2.42;;;1.48;;
40471;SDS011;26174;42.908;23.800;2022-09-17T13:45:09;4.80;;;1.80;;
40471;SDS011;26174;42.908;23.800;2022-09-17T13:47:54;5.05;;;1.77;;
40471;SDS011;26174;42.908;23.800;2022-09-17T13:50:34;3.92;;;2.03;;
40471;SDS011;26174;42.908;23.800;2022-09-17T13:55:42;3.03;;;1.52;;
40471;SDS011;26174;42.908;23.800;2022-09-17T14:13:46;3.13;;;1.52;;
40471;SDS011;26174;42.908;23.800;2022-09-17T14:19:04;2.97;;;0.93;;
40471;SDS011;26174;42.908;23.800;2022-09-17T14:24:19;2.03;;;1.58;;
40471;SDS011;26174;42.908;23.800;2022-09-17T14:30:01;5.25;;;1.20;;
40471;SDS011;26174;42.908;23.800;2022-09-17T14:32:35;2.97;;;1.42;;
40471;SDS011;26174;42.908;23.800;2022-09-17T14:37:41;1.85;;;1.02;;
40471;SDS011;26174;42.908;23.800;2022-09-17T14:40:09;2.83;;;1.08;;
40471;SDS011;26174;42.908;23.800;2022-09-17T14:42:35;2.08;;;0.88;;
40471;SDS011;26174;42.908;23.800;2022-09-17T14:45:06;2.72;;;1.10;;
40471;SDS011;26174;42.908;23.800;2022-09-17T14:47:45;3.13;;;0.90;;
40471;SDS011;26174;42.908;23.800;2022-09-17T14:50:20;3.92;;;1.00;;
40471;SDS011;26174;42.908;23.800;2022-09-17T14:52:47;3.83;;;1.30;;
40471;SDS011;26174;42.908;23.800;2022-09-17T14:57:56;3.88;;;1.23;;
40471;SDS011;26174;42.908;23.800;2022-09-17T15:00:27;2.97;;;1.50;;
40471;SDS011;26174;42.908;23.800;2022-09-17T15:03:00;3.25;;;1.10;;
40471;SDS011;26174;42.908;23.800;2022-09-17T15:05:33;6.88;;;0.95;;
40471;SDS011;26174;42.908;23.800;2022-09-17T15:08:03;5.80;;;1.00;;
40471;SDS011;26174;42.908;23.800;2022-09-17T15:10:31;2.85;;;1.10;;
40471;SDS011;26174;42.908;23.800;2022-09-17T15:13:09;5.20;;;2.38;;
40471;SDS011;26174;42.908;23.800;2022-09-17T15:15:36;4.10;;;1.40;;
40471;SDS011;26174;42.908;23.800;2022-09-17T15:18:04;1.98;;;1.10;;
40471;SDS011;26174;42.908;23.800;2022-09-17T15:20:29;2.13;;;1.20;;
40471;SDS011;26174;42.908;23.800;2022-09-17T15:23:05;1.00;;;0.80;;
40471;SDS011;26174;42.908;23.800;2022-09-17T15:25:43;0.70;;;0.70;;
40471;SDS011;26174;42.908;23.800;2022-09-17T15:28:18;2.13;;;0.77;;
40471;SDS011;26174;42.908;23.800;2022-09-17T15:31:08;2.05;;;0.93;;
40471;SDS011;26174;42.908;23.800;2022-09-17T15:33:42;3.17;;;1.30;;
40471;SDS011;26174;42.908;23.800;2022-09-17T15:36:14;2.28;;;1.45;;
40471;SDS011;26174;42.908;23.800;2022-09-17T15:38:46;3.90;;;1.00;;
40471;SDS011;26174;42.908;23.800;2022-09-17T15:44:32;3.00;;;1.00;;
40471;SDS011;26174;42.908;23.800;2022-09-17T15:46:51;2.45;;;0.90;;
40471;SDS011;26174;42.908;23.800;2022-09-17T15:49:30;1.20;;;0.70;;
40471;SDS011;26174;42.908;23.800;2022-09-17T15:52:45;1.23;;;0.90;;
40471;SDS011;26174;42.908;23.800;2022-09-17T15:55:01;3.47;;;1.10;;
40471;SDS011;26174;42.908;23.800;2022-09-17T15:57:27;1.17;;;0.85;;
40471;SDS011;26174;42.908;23.800;2022-09-17T15:59:54;2.08;;;1.17;;
40471;SDS011;26174;42.908;23.800;2022-09-17T16:02:27;3.22;;;1.15;;
40471;SDS011;26174;42.908;23.800;2022-09-17T16:07:41;3.22;;;0.70;;
40471;SDS011;26174;42.908;23.800;2022-09-17T16:10:11;2.05;;;1.05;;
40471;SDS011;26174;42.908;23.800;2022-09-17T16:12:37;1.02;;;0.90;;
40471;SDS011;26174;42.908;23.800;2022-09-17T16:15:04;1.90;;;1.10;;
40471;SDS011;26174;42.908;23.800;2022-09-17T16:20:07;3.28;;;0.70;;
40471;SDS011;26174;42.908;23.800;2022-09-17T16:22:44;0.77;;;0.70;;
40471;SDS011;26174;42.908;23.800;2022-09-17T16:25:12;1.50;;;0.52;;
40471;SDS011;26174;42.908;23.800;2022-09-17T16:27:45;1.50;;;0.90;;
40471;SDS011;26174;42.908;23.800;2022-09-17T16:30:15;1.08;;;0.77;;
40471;SDS011;26174;42.908;23.800;2022-09-17T16:32:42;0.73;;;0.70;;
40471;SDS011;26174;42.908;23.800;2022-09-17T16:35:10;3.42;;;0.95;;
40471;SDS011;26174;42.908;23.800;2022-09-17T16:37:36;3.33;;;0.80;;
40471;SDS011;26174;42.908;23.800;2022-09-17T16:40:02;3.20;;;1.05;;
40471;SDS011;26174;42.908;23.800;2022-09-17T16:42:31;0.70;;;0.60;;
40471;SDS011;26174;42.908;23.800;2022-09-17T16:44:57;1.50;;;1.30;;
40471;SDS011;26174;42.908;23.800;2022-09-17T16:47:25;1.42;;;1.13;;
40471;SDS011;26174;42.908;23.800;2022-09-17T16:49:50;2.17;;;1.25;;
40471;SDS011;26174;42.908;23.800;2022-09-17T16:52:17;1.63;;;0.80;;
40471;SDS011;26174;42.908;23.800;2022-09-17T16:54:42;3.80;;;1.13;;
40471;SDS011;26174;42.908;23.800;2022-09-17T16:57:08;1.85;;;0.77;;
40471;SDS011;26174;42.908;23.800;2022-09-17T16:59:34;6.30;;;1.23;;
40471;SDS011;26174;42.908;23.800;2022-09-17T17:02:00;2.05;;;1.02;;
40471;SDS011;26174;42.908;23.800;2022-09-17T17:04:26;1.38;;;1.00;;
40471;SDS011;26174;42.908;23.800;2022-09-17T17:06:51;1.83;;;1.20;;
40471;SDS011;26174;42.908;23.800;2022-09-17T17:09:17;2.67;;;1.00;;
40471;SDS011;26174;42.908;23.800;2022-09-17T17:11:42;1.45;;;0.88;;
40471;SDS011;26174;42.908;23.800;2022-09-17T17:14:08;3.25;;;0.90;;
40471;SDS011;26174;42.908;23.800;2022-09-17T17:16:34;0.70;;;0.70;;
40471;SDS011;26174;42.908;23.800;2022-09-17T17:18:59;5.05;;;0.75;;
40471;SDS011;26174;42.908;23.800;2022-09-17T17:21:25;3.17;;;1.55;;
40471;SDS011;26174;42.908;23.800;2022-09-17T17:23:50;3.83;;;1.27;;
40471;SDS011;26174;42.908;23.800;2022-09-17T17:26:16;1.40;;;0.77;;
40471;SDS011;26174;42.908;23.800;2022-09-17T17:28:42;3.22;;;0.90;;
40471;SDS011;26174;42.908;23.800;2022-09-17T17:31:07;1.65;;;1.02;;
40471;SDS011;26174;42.908;23.800;2022-09-17T17:33:33;4.28;;;2.35;;
40471;SDS011;26174;42.908;23.800;2022-09-17T17:36:00;2.28;;;1.63;;
40471;SDS011;26174;42.908;23.800;2022-09-17T17:38:26;3.75;;;1.23;;
40471;SDS011;26174;42.908;23.800;2022-09-17T17:41:02;2.83;;;1.25;;
40471;SDS011;26174;42.908;23.800;2022-09-17T17:43:32;1.33;;;1.10;;
40471;SDS011;26174;42.908;23.800;2022-09-17T17:45:57;4.10;;;1.05;;
40471;SDS011;26174;42.908;23.800;2022-09-17T17:48:23;2.15;;;1.30;;
40471;SDS011;26174;42.908;23.800;2022-09-17T17:50:51;1.40;;;0.88;;
40471;SDS011;26174;42.908;23.800;2022-09-17T17:53:17;1.08;;;0.75;;
40471;SDS011;26174;42.908;23.800;2022-09-17T17:55:42;2.08;;;1.00;;
40471;SDS011;26174;42.908;23.800;2022-09-17T17:58:08;2.17;;;0.93;;
40471;SDS011;26174;42.908;23.800;2022-09-17T18:00:33;2.65;;;0.80;;
40471;SDS011;26174;42.908;23.800;2022-09-17T18:02:59;2.83;;;1.00;;
40471;SDS011;26174;42.908;23.800;2022-09-17T18:05:24;0.65;;;0.60;;
40471;SDS011;26174;42.908;23.800;2022-09-17T18:07:50;5.32;;;1.08;;
40471;SDS011;26174;42.908;23.800;2022-09-17T18:10:15;2.38;;;0.95;;
40471;SDS011;26174;42.908;23.800;2022-09-17T18:12:41;7.22;;;3.80;;
40471;SDS011;26174;42.908;23.800;2022-09-17T18:15:14;7.97;;;5.28;;
40471;SDS011;26174;42.908;23.800;2022-09-17T18:17:39;4.57;;;2.35;;
40471;SDS011;26174;42.908;23.800;2022-09-17T18:20:05;7.30;;;1.70;;
40471;SDS011;26174;42.908;23.800;2022-09-17T18:22:31;2.40;;;1.00;;
40471;SDS011;26174;42.908;23.800;2022-09-17T18:24:56;5.95;;;1.23;;
40471;SDS011;26174;42.908;23.800;2022-09-17T18:27:22;2.53;;;0.90;;
40471;SDS011;26174;42.908;23.800;2022-09-17T18:29:47;3.75;;;1.00;;
40471;SDS011;26174;42.908;23.800;2022-09-17T18:32:13;3.00;;;0.80;;
40471;SDS011;26174;42.908;23.800;2022-09-17T18:34:39;2.58;;;0.98;;
40471;SDS011;26174;42.908;23.800;2022-09-17T18:37:05;3.47;;;0.98;;
40471;SDS011;26174;42.908;23.800;2022-09-17T18:39:31;1.65;;;1.00;;
40471;SDS011;26174;42.908;23.800;2022-09-17T18:41:56;0.88;;;0.63;;
40471;SDS011;26174;42.908;23.800;2022-09-17T18:44:22;1.52;;;0.80;;
40471;SDS011;26174;42.908;23.800;2022-09-17T18:46:48;3.05;;;1.00;;
40471;SDS011;26174;42.908;23.800;2022-09-17T18:49:17;4.05;;;0.88;;
40471;SDS011;26174;42.908;23.800;2022-09-17T18:51:46;4.15;;;2.70;;
40471;SDS011;26174;42.908;23.800;2022-09-17T18:54:14;4.68;;;0.85;;
40471;SDS011;26174;42.908;23.800;2022-09-17T18:56:39;1.30;;;0.77;;
40471;SDS011;26174;42.908;23.800;2022-09-17T18:59:08;5.90;;;1.40;;